sensor_id;sensor_type;location;lat;lon;timestamp;P1;durP1;ratioP1;P2;durP2;ratioP2
2618;SDS011;1319;52.346;13.096;2023-09-07T00:00:19;12.23;;;8.83;;
2618;SDS011;1319;52.346;13.096;2023-09-07T00:02:44;18.43;;;10.17;;
2618;SDS011;1319;52.346;13.096;2023-09-07T00:05:10;37.00;;;11.40;;
2618;SDS011;1319;52.346;13.096;2023-09-07T00:07:35;36.57;;;10.67;;
2618;SDS011;1319;52.346;13.096;2023-09-07T00:10:01;19.00;;;9.33;;
2618;SDS011;1319;52.346;13.096;2023-09-07T00:12:26;21.50;;;9.80;;
2618;SDS011;1319;52.346;13.096;2023-09-07T00:14:55;14.77;;;9.67;;
2618;SDS011;1319;52.346;13.096;2023-09-07T00:17:20;17.33;;;9.93;;
2618;SDS011;1319;52.346;13.096;2023-09-07T00:19:46;23.87;;;10.40;;
2618;SDS011;1319;52.346;13.096;2023-09-07T00:22:14;17.73;;;9.00;;
2618;SDS011;1319;52.346;13.096;2023-09-07T00:24:39;18.13;;;9.23;;
2618;SDS011;1319;52.346;13.096;2023-09-07T00:27:04;12.00;;;8.83;;
2618;SDS011;1319;52.346;13.096;2023-09-07T00:29:31;12.13;;;9.87;;
2618;SDS011;1319;52.346;13.096;2023-09-07T00:31:56;13.90;;;9.37;;
2618;SDS011;1319;52.346;13.096;2023-09-07T00:34:21;12.70;;;10.17;;
2618;SDS011;1319;52.346;13.096;2023-09-07T00:36:47;13.40;;;10.23;;
2618;SDS011;1319;52.346;13.096;2023-09-07T00:39:12;13.90;;;10.00;;
2618;SDS011;1319;52.346;13.096;2023-09-07T00:41:37;14.17;;;10.33;;
2618;SDS011;1319;52.346;13.096;2023-09-07T00:44:03;13.53;;;10.40;;
2618;SDS011;1319;52.346;13.096;2023-09-07T00:46:28;11.67;;;9.00;;
2618;SDS011;1319;52.346;13.096;2023-09-07T00:48:53;13.73;;;10.73;;
2618;SDS011;1319;52.346;13.096;2023-09-07T00:51:19;11.83;;;9.53;;
2618;SDS011;1319;52.346;13.096;2023-09-07T00:53:44;14.03;;;9.43;;
2618;SDS011;1319;52.346;13.096;2023-09-07T00:56:09;11.67;;;9.23;;
2618;SDS011;1319;52.346;13.096;2023-09-07T00:58:35;11.57;;;9.13;;
2618;SDS011;1319;52.346;13.096;2023-09-07T01:01:01;12.50;;;9.40;;
2618;SDS011;1319;52.346;13.096;2023-09-07T01:03:27;27.03;;;9.43;;
2618;SDS011;1319;52.346;13.096;2023-09-07T01:05:55;14.20;;;9.43;;
2618;SDS011;1319;52.346;13.096;2023-09-07T01:08:26;12.63;;;9.67;;
2618;SDS011;1319;52.346;13.096;2023-09-07T01:10:54;13.70;;;9.27;;
2618;SDS011;1319;52.346;13.096;2023-09-07T01:13:19;12.93;;;9.53;;
2618;SDS011;1319;52.346;13.096;2023-09-07T01:15:45;16.00;;;10.57;;
2618;SDS011;1319;52.346;13.096;2023-09-07T01:18:10;11.77;;;9.70;;
2618;SDS011;1319;52.346;13.096;2023-09-07T01:20:36;16.43;;;9.90;;
2618;SDS011;1319;52.346;13.096;2023-09-07T01:23:02;11.80;;;9.63;;
2618;SDS011;1319;52.346;13.096;2023-09-07T01:25:27;12.07;;;9.90;;
2618;SDS011;1319;52.346;13.096;2023-09-07T01:27:53;12.60;;;10.13;;
2618;SDS011;1319;52.346;13.096;2023-09-07T01:30:18;15.77;;;10.33;;
2618;SDS011;1319;52.346;13.096;2023-09-07T01:32:43;12.57;;;9.63;;
2618;SDS011;1319;52.346;13.096;2023-09-07T01:35:09;13.03;;;10.17;;
2618;SDS011;1319;52.346;13.096;2023-09-07T01:37:35;14.80;;;10.40;;
2618;SDS011;1319;52.346;13.096;2023-09-07T01:40:00;14.27;;;10.03;;
2618;SDS011;1319;52.346;13.096;2023-09-07T01:42:25;13.43;;;10.40;;
2618;SDS011;1319;52.346;13.096;2023-09-07T01:44:51;13.87;;;10.20;;
2618;SDS011;1319;52.346;13.096;2023-09-07T01:47:16;12.27;;;10.13;;
2618;SDS011;1319;52.346;13.096;2023-09-07T01:49:41;12.80;;;10.20;;
2618;SDS011;1319;52.346;13.096;2023-09-07T01:52:06;12.57;;;10.30;;
2618;SDS011;1319;52.346;13.096;2023-09-07T01:54:32;12.30;;;10.27;;
2618;SDS011;1319;52.346;13.096;2023-09-07T01:56:57;13.43;;;10.30;;
2618;SDS011;1319;52.346;13.096;2023-09-07T01:59:22;11.97;;;10.47;;
2618;SDS011;1319;52.346;13.096;2023-09-07T02:01:48;14.60;;;10.30;;
2618;SDS011;1319;52.346;13.096;2023-09-07T02:04:13;14.00;;;10.43;;
2618;SDS011;1319;52.346;13.096;2023-09-07T02:06:38;15.40;;;10.03;;
2618;SDS011;1319;52.346;13.096;2023-09-07T02:09:04;16.43;;;11.17;;
2618;SDS011;1319;52.346;13.096;2023-09-07T02:11:29;12.13;;;10.03;;
2618;SDS011;1319;52.346;13.096;2023-09-07T02:13:54;13.33;;;9.87;;
2618;SDS011;1319;52.346;13.096;2023-09-07T02:16:20;11.10;;;9.50;;
2618;SDS011;1319;52.346;13.096;2023-09-07T02:18:49;11.10;;;9.60;;
2618;SDS011;1319;52.346;13.096;2023-09-07T02:21:14;15.97;;;10.00;;
2618;SDS011;1319;52.346;13.096;2023-09-07T02:23:40;13.00;;;10.47;;
2618;SDS011;1319;52.346;13.096;2023-09-07T02:26:06;12.53;;;10.50;;
2618;SDS011;1319;52.346;13.096;2023-09-07T02:28:31;14.23;;;10.17;;
2618;SDS011;1319;52.346;13.096;2023-09-07T02:31:05;14.83;;;10.07;;
2618;SDS011;1319;52.346;13.096;2023-09-07T02:33:31;13.70;;;10.07;;
2618;SDS011;1319;52.346;13.096;2023-09-07T02:35:57;15.77;;;10.40;;
2618;SDS011;1319;52.346;13.096;2023-09-07T02:38:22;15.10;;;9.60;;
2618;SDS011;1319;52.346;13.096;2023-09-07T02:40:47;10.93;;;9.47;;
2618;SDS011;1319;52.346;13.096;2023-09-07T02:43:13;14.10;;;10.40;;
2618;SDS011;1319;52.346;13.096;2023-09-07T02:45:38;13.80;;;10.13;;
2618;SDS011;1319;52.346;13.096;2023-09-07T02:48:04;13.03;;;10.37;;
2618;SDS011;1319;52.346;13.096;2023-09-07T02:50:34;13.17;;;9.53;;
2618;SDS011;1319;52.346;13.096;2023-09-07T02:52:59;11.27;;;9.70;;
2618;SDS011;1319;52.346;13.096;2023-09-07T02:55:25;12.87;;;10.27;;
2618;SDS011;1319;52.346;13.096;2023-09-07T02:57:50;13.27;;;9.63;;
2618;SDS011;1319;52.346;13.096;2023-09-07T03:00:16;12.10;;;10.30;;
2618;SDS011;1319;52.346;13.096;2023-09-07T03:02:42;13.17;;;9.67;;
2618;SDS011;1319;52.346;13.096;2023-09-07T03:05:08;10.83;;;9.07;;
2618;SDS011;1319;52.346;13.096;2023-09-07T03:07:33;12.90;;;8.83;;
2618;SDS011;1319;52.346;13.096;2023-09-07T03:09:58;12.73;;;8.57;;
2618;SDS011;1319;52.346;13.096;2023-09-07T03:12:24;9.33;;;8.30;;
2618;SDS011;1319;52.346;13.096;2023-09-07T03:14:49;13.30;;;8.20;;
2618;SDS011;1319;52.346;13.096;2023-09-07T03:17:15;8.70;;;7.60;;
2618;SDS011;1319;52.346;13.096;2023-09-07T03:19:41;10.87;;;8.03;;
2618;SDS011;1319;52.346;13.096;2023-09-07T03:22:06;10.77;;;9.47;;
2618;SDS011;1319;52.346;13.096;2023-09-07T03:24:32;11.10;;;9.40;;
2618;SDS011;1319;52.346;13.096;2023-09-07T03:26:57;12.10;;;8.63;;
2618;SDS011;1319;52.346;13.096;2023-09-07T03:29:24;11.80;;;9.60;;
2618;SDS011;1319;52.346;13.096;2023-09-07T03:31:49;13.43;;;9.43;;
2618;SDS011;1319;52.346;13.096;2023-09-07T03:34:14;10.50;;;8.13;;
2618;SDS011;1319;52.346;13.096;2023-09-07T03:36:39;9.40;;;7.33;;
2618;SDS011;1319;52.346;13.096;2023-09-07T03:39:05;10.63;;;7.50;;
2618;SDS011;1319;52.346;13.096;2023-09-07T03:41:32;8.40;;;7.60;;
2618;SDS011;1319;52.346;13.096;2023-09-07T03:43:58;8.60;;;7.70;;
2618;SDS011;1319;52.346;13.096;2023-09-07T03:46:24;8.67;;;7.77;;
2618;SDS011;1319;52.346;13.096;2023-09-07T03:48:49;11.10;;;8.90;;
2618;SDS011;1319;52.346;13.096;2023-09-07T03:51:14;12.47;;;9.20;;
2618;SDS011;1319;52.346;13.096;2023-09-07T03:53:39;13.20;;;8.43;;
2618;SDS011;1319;52.346;13.096;2023-09-07T03:56:05;9.07;;;7.97;;
2618;SDS011;1319;52.346;13.096;2023-09-07T03:58:30;11.47;;;8.20;;
2618;SDS011;1319;52.346;13.096;2023-09-07T04:00:58;8.80;;;7.90;;
2618;SDS011;1319;52.346;13.096;2023-09-07T04:03:24;11.53;;;8.50;;
2618;SDS011;1319;52.346;13.096;2023-09-07T04:05:50;12.13;;;10.00;;
2618;SDS011;1319;52.346;13.096;2023-09-07T04:08:15;11.10;;;9.60;;
2618;SDS011;1319;52.346;13.096;2023-09-07T04:10:40;11.03;;;9.40;;
2618;SDS011;1319;52.346;13.096;2023-09-07T04:13:05;10.53;;;8.70;;
2618;SDS011;1319;52.346;13.096;2023-09-07T04:15:32;11.07;;;8.87;;
2618;SDS011;1319;52.346;13.096;2023-09-07T04:17:58;11.90;;;9.30;;
2618;SDS011;1319;52.346;13.096;2023-09-07T04:20:23;11.93;;;10.10;;
2618;SDS011;1319;52.346;13.096;2023-09-07T04:22:49;13.00;;;10.00;;
2618;SDS011;1319;52.346;13.096;2023-09-07T04:25:14;12.00;;;9.33;;
2618;SDS011;1319;52.346;13.096;2023-09-07T04:27:39;12.53;;;9.10;;
2618;SDS011;1319;52.346;13.096;2023-09-07T04:30:05;11.73;;;8.53;;
2618;SDS011;1319;52.346;13.096;2023-09-07T04:32:30;10.23;;;9.13;;
2618;SDS011;1319;52.346;13.096;2023-09-07T04:34:56;9.33;;;8.43;;
2618;SDS011;1319;52.346;13.096;2023-09-07T04:37:24;10.10;;;9.00;;
2618;SDS011;1319;52.346;13.096;2023-09-07T04:39:53;15.30;;;9.77;;
2618;SDS011;1319;52.346;13.096;2023-09-07T04:42:18;13.33;;;9.90;;
2618;SDS011;1319;52.346;13.096;2023-09-07T04:44:44;12.07;;;9.47;;
2618;SDS011;1319;52.346;13.096;2023-09-07T04:47:09;13.03;;;9.50;;
2618;SDS011;1319;52.346;13.096;2023-09-07T04:49:34;12.30;;;9.73;;
2618;SDS011;1319;52.346;13.096;2023-09-07T04:51:59;14.43;;;10.30;;
2618;SDS011;1319;52.346;13.096;2023-09-07T04:54:25;12.63;;;10.03;;
2618;SDS011;1319;52.346;13.096;2023-09-07T04:56:50;10.60;;;9.50;;
2618;SDS011;1319;52.346;13.096;2023-09-07T04:59:15;13.07;;;9.97;;
2618;SDS011;1319;52.346;13.096;2023-09-07T05:01:40;13.73;;;10.00;;
2618;SDS011;1319;52.346;13.096;2023-09-07T05:04:06;13.60;;;10.10;;
2618;SDS011;1319;52.346;13.096;2023-09-07T05:06:31;14.10;;;10.80;;
2618;SDS011;1319;52.346;13.096;2023-09-07T05:09:01;11.27;;;9.57;;
2618;SDS011;1319;52.346;13.096;2023-09-07T05:11:27;13.20;;;9.10;;
2618;SDS011;1319;52.346;13.096;2023-09-07T05:13:52;12.70;;;9.37;;
2618;SDS011;1319;52.346;13.096;2023-09-07T05:16:17;12.67;;;9.50;;
2618;SDS011;1319;52.346;13.096;2023-09-07T05:18:42;9.87;;;8.87;;
2618;SDS011;1319;52.346;13.096;2023-09-07T05:21:14;11.37;;;9.50;;
2618;SDS011;1319;52.346;13.096;2023-09-07T05:23:39;13.23;;;10.20;;
2618;SDS011;1319;52.346;13.096;2023-09-07T05:26:05;13.97;;;11.47;;
2618;SDS011;1319;52.346;13.096;2023-09-07T05:28:30;13.87;;;11.30;;
2618;SDS011;1319;52.346;13.096;2023-09-07T05:30:55;13.90;;;10.37;;
2618;SDS011;1319;52.346;13.096;2023-09-07T05:33:20;12.90;;;10.30;;
2618;SDS011;1319;52.346;13.096;2023-09-07T05:35:46;13.03;;;11.00;;
2618;SDS011;1319;52.346;13.096;2023-09-07T05:38:11;15.43;;;11.93;;
2618;SDS011;1319;52.346;13.096;2023-09-07T05:40:40;19.77;;;12.83;;
2618;SDS011;1319;52.346;13.096;2023-09-07T05:43:05;19.47;;;13.23;;
2618;SDS011;1319;52.346;13.096;2023-09-07T05:45:31;18.17;;;12.67;;
2618;SDS011;1319;52.346;13.096;2023-09-07T05:47:57;17.90;;;13.50;;
2618;SDS011;1319;52.346;13.096;2023-09-07T05:50:22;18.93;;;14.07;;
2618;SDS011;1319;52.346;13.096;2023-09-07T05:52:47;21.30;;;12.93;;
2618;SDS011;1319;52.346;13.096;2023-09-07T05:55:12;19.90;;;14.40;;
2618;SDS011;1319;52.346;13.096;2023-09-07T05:57:37;24.30;;;14.17;;
2618;SDS011;1319;52.346;13.096;2023-09-07T06:00:03;23.67;;;15.57;;
2618;SDS011;1319;52.346;13.096;2023-09-07T06:02:29;25.90;;;16.30;;
2618;SDS011;1319;52.346;13.096;2023-09-07T06:04:55;26.20;;;17.20;;
2618;SDS011;1319;52.346;13.096;2023-09-07T06:07:20;31.67;;;18.77;;
2618;SDS011;1319;52.346;13.096;2023-09-07T06:09:45;26.60;;;19.37;;
2618;SDS011;1319;52.346;13.096;2023-09-07T06:12:10;29.87;;;18.83;;
2618;SDS011;1319;52.346;13.096;2023-09-07T06:14:35;33.20;;;20.53;;
2618;SDS011;1319;52.346;13.096;2023-09-07T06:17:01;31.50;;;20.40;;
2618;SDS011;1319;52.346;13.096;2023-09-07T06:19:26;29.50;;;19.60;;
2618;SDS011;1319;52.346;13.096;2023-09-07T06:21:51;28.87;;;20.00;;
2618;SDS011;1319;52.346;13.096;2023-09-07T06:24:16;29.70;;;21.03;;
2618;SDS011;1319;52.346;13.096;2023-09-07T06:26:42;36.60;;;22.23;;
2618;SDS011;1319;52.346;13.096;2023-09-07T06:29:09;33.77;;;19.77;;
2618;SDS011;1319;52.346;13.096;2023-09-07T06:31:34;31.63;;;21.60;;
2618;SDS011;1319;52.346;13.096;2023-09-07T06:33:59;29.30;;;19.97;;
2618;SDS011;1319;52.346;13.096;2023-09-07T06:36:25;30.07;;;19.30;;
2618;SDS011;1319;52.346;13.096;2023-09-07T06:38:50;31.20;;;20.53;;
2618;SDS011;1319;52.346;13.096;2023-09-07T06:41:15;29.10;;;20.27;;
2618;SDS011;1319;52.346;13.096;2023-09-07T06:43:40;23.57;;;16.80;;
2618;SDS011;1319;52.346;13.096;2023-09-07T06:46:06;23.47;;;16.30;;
2618;SDS011;1319;52.346;13.096;2023-09-07T06:48:32;26.13;;;16.07;;
2618;SDS011;1319;52.346;13.096;2023-09-07T06:51:02;21.30;;;14.87;;
2618;SDS011;1319;52.346;13.096;2023-09-07T06:53:28;19.00;;;13.63;;
2618;SDS011;1319;52.346;13.096;2023-09-07T06:55:59;14.87;;;11.43;;
2618;SDS011;1319;52.346;13.096;2023-09-07T06:58:24;16.40;;;12.37;;
2618;SDS011;1319;52.346;13.096;2023-09-07T07:00:50;15.70;;;10.90;;
2618;SDS011;1319;52.346;13.096;2023-09-07T07:03:15;18.20;;;11.13;;
2618;SDS011;1319;52.346;13.096;2023-09-07T07:05:40;16.70;;;11.03;;
2618;SDS011;1319;52.346;13.096;2023-09-07T07:08:05;17.63;;;9.87;;
2618;SDS011;1319;52.346;13.096;2023-09-07T07:10:31;17.00;;;9.47;;
2618;SDS011;1319;52.346;13.096;2023-09-07T07:12:56;13.50;;;9.47;;
2618;SDS011;1319;52.346;13.096;2023-09-07T07:15:21;13.27;;;8.60;;
2618;SDS011;1319;52.346;13.096;2023-09-07T07:17:46;14.47;;;8.97;;
2618;SDS011;1319;52.346;13.096;2023-09-07T07:20:12;12.93;;;8.63;;
2618;SDS011;1319;52.346;13.096;2023-09-07T07:22:37;16.63;;;8.67;;
2618;SDS011;1319;52.346;13.096;2023-09-07T07:25:02;11.97;;;8.77;;
2618;SDS011;1319;52.346;13.096;2023-09-07T07:27:31;16.13;;;8.37;;
2618;SDS011;1319;52.346;13.096;2023-09-07T07:29:56;11.73;;;7.97;;
2618;SDS011;1319;52.346;13.096;2023-09-07T07:32:21;10.33;;;7.77;;
2618;SDS011;1319;52.346;13.096;2023-09-07T07:34:46;15.70;;;8.03;;
2618;SDS011;1319;52.346;13.096;2023-09-07T07:37:12;10.60;;;7.50;;
2618;SDS011;1319;52.346;13.096;2023-09-07T07:39:37;12.77;;;6.73;;
2618;SDS011;1319;52.346;13.096;2023-09-07T07:42:02;9.63;;;6.87;;
2618;SDS011;1319;52.346;13.096;2023-09-07T07:44:29;13.73;;;7.40;;
2618;SDS011;1319;52.346;13.096;2023-09-07T07:46:55;11.70;;;7.43;;
2618;SDS011;1319;52.346;13.096;2023-09-07T07:49:20;11.17;;;6.40;;
2618;SDS011;1319;52.346;13.096;2023-09-07T07:51:45;10.27;;;6.33;;
2618;SDS011;1319;52.346;13.096;2023-09-07T07:54:11;11.93;;;6.90;;
2618;SDS011;1319;52.346;13.096;2023-09-07T07:56:38;9.82;;;6.72;;
2618;SDS011;1319;52.346;13.096;2023-09-07T07:59:03;9.27;;;6.32;;
2618;SDS011;1319;52.346;13.096;2023-09-07T08:01:29;11.05;;;6.50;;
2618;SDS011;1319;52.346;13.096;2023-09-07T08:03:54;11.98;;;6.10;;
2618;SDS011;1319;52.346;13.096;2023-09-07T08:06:19;11.83;;;6.53;;
2618;SDS011;1319;52.346;13.096;2023-09-07T08:08:45;12.07;;;7.10;;
2618;SDS011;1319;52.346;13.096;2023-09-07T08:11:10;11.68;;;6.20;;
2618;SDS011;1319;52.346;13.096;2023-09-07T08:13:36;10.05;;;6.50;;
2618;SDS011;1319;52.346;13.096;2023-09-07T08:16:02;11.75;;;6.78;;
2618;SDS011;1319;52.346;13.096;2023-09-07T08:18:28;8.32;;;5.82;;
2618;SDS011;1319;52.346;13.096;2023-09-07T08:20:53;9.32;;;6.30;;
2618;SDS011;1319;52.346;13.096;2023-09-07T08:23:20;14.73;;;5.78;;
2618;SDS011;1319;52.346;13.096;2023-09-07T08:25:46;9.35;;;5.65;;
2618;SDS011;1319;52.346;13.096;2023-09-07T08:28:12;10.98;;;6.00;;
2618;SDS011;1319;52.346;13.096;2023-09-07T08:30:37;8.57;;;5.90;;
2618;SDS011;1319;52.346;13.096;2023-09-07T08:33:03;11.80;;;6.22;;
2618;SDS011;1319;52.346;13.096;2023-09-07T08:35:30;7.47;;;5.38;;
2618;SDS011;1319;52.346;13.096;2023-09-07T08:37:55;10.07;;;5.78;;
2618;SDS011;1319;52.346;13.096;2023-09-07T08:40:23;7.93;;;5.50;;
2618;SDS011;1319;52.346;13.096;2023-09-07T08:42:48;13.15;;;5.47;;
2618;SDS011;1319;52.346;13.096;2023-09-07T08:45:14;8.38;;;5.40;;
2618;SDS011;1319;52.346;13.096;2023-09-07T08:47:41;6.13;;;5.10;;
2618;SDS011;1319;52.346;13.096;2023-09-07T08:50:07;6.03;;;5.15;;
2618;SDS011;1319;52.346;13.096;2023-09-07T08:52:33;8.23;;;5.10;;
2618;SDS011;1319;52.346;13.096;2023-09-07T08:54:58;6.32;;;5.00;;
2618;SDS011;1319;52.346;13.096;2023-09-07T08:57:25;5.18;;;4.65;;
2618;SDS011;1319;52.346;13.096;2023-09-07T08:59:52;7.18;;;5.50;;
2618;SDS011;1319;52.346;13.096;2023-09-07T09:02:17;6.53;;;5.18;;
2618;SDS011;1319;52.346;13.096;2023-09-07T09:04:42;10.27;;;5.45;;
2618;SDS011;1319;52.346;13.096;2023-09-07T09:07:07;7.60;;;5.13;;
2618;SDS011;1319;52.346;13.096;2023-09-07T09:09:33;7.30;;;4.85;;
2618;SDS011;1319;52.346;13.096;2023-09-07T09:12:08;11.82;;;4.85;;
2618;SDS011;1319;52.346;13.096;2023-09-07T09:14:33;8.43;;;4.60;;
2618;SDS011;1319;52.346;13.096;2023-09-07T09:16:58;7.95;;;4.47;;
2618;SDS011;1319;52.346;13.096;2023-09-07T09:19:33;7.70;;;4.18;;
2618;SDS011;1319;52.346;13.096;2023-09-07T09:21:59;5.65;;;4.63;;
2618;SDS011;1319;52.346;13.096;2023-09-07T09:24:24;9.27;;;4.68;;
2618;SDS011;1319;52.346;13.096;2023-09-07T09:26:50;8.40;;;4.90;;
2618;SDS011;1319;52.346;13.096;2023-09-07T09:29:15;10.10;;;4.88;;
2618;SDS011;1319;52.346;13.096;2023-09-07T09:31:40;7.68;;;4.60;;
2618;SDS011;1319;52.346;13.096;2023-09-07T09:34:06;6.25;;;4.50;;
2618;SDS011;1319;52.346;13.096;2023-09-07T09:36:35;8.32;;;4.63;;
2618;SDS011;1319;52.346;13.096;2023-09-07T09:39:00;7.20;;;5.00;;
2618;SDS011;1319;52.346;13.096;2023-09-07T09:41:25;8.60;;;4.60;;
2618;SDS011;1319;52.346;13.096;2023-09-07T09:43:51;13.25;;;4.35;;
2618;SDS011;1319;52.346;13.096;2023-09-07T09:46:17;5.43;;;4.55;;
2618;SDS011;1319;52.346;13.096;2023-09-07T09:48:43;9.40;;;4.40;;
2618;SDS011;1319;52.346;13.096;2023-09-07T09:51:08;8.20;;;4.80;;
2618;SDS011;1319;52.346;13.096;2023-09-07T09:53:36;8.32;;;4.57;;
2618;SDS011;1319;52.346;13.096;2023-09-07T09:56:01;12.23;;;4.60;;
2618;SDS011;1319;52.346;13.096;2023-09-07T09:58:26;6.95;;;4.70;;
2618;SDS011;1319;52.346;13.096;2023-09-07T10:00:53;7.63;;;5.05;;
2618;SDS011;1319;52.346;13.096;2023-09-07T10:03:24;6.88;;;4.68;;
2618;SDS011;1319;52.346;13.096;2023-09-07T10:05:51;7.10;;;4.60;;
2618;SDS011;1319;52.346;13.096;2023-09-07T10:08:17;7.22;;;4.80;;
2618;SDS011;1319;52.346;13.096;2023-09-07T10:10:44;8.10;;;4.93;;
2618;SDS011;1319;52.346;13.096;2023-09-07T10:13:13;9.07;;;4.90;;
2618;SDS011;1319;52.346;13.096;2023-09-07T10:15:38;5.40;;;4.70;;
2618;SDS011;1319;52.346;13.096;2023-09-07T10:18:08;8.35;;;5.38;;
2618;SDS011;1319;52.346;13.096;2023-09-07T10:20:46;7.93;;;4.80;;
2618;SDS011;1319;52.346;13.096;2023-09-07T10:23:13;7.65;;;4.35;;
2618;SDS011;1319;52.346;13.096;2023-09-07T10:25:38;8.93;;;4.80;;
2618;SDS011;1319;52.346;13.096;2023-09-07T10:28:04;11.15;;;4.70;;
2618;SDS011;1319;52.346;13.096;2023-09-07T10:30:30;9.48;;;4.53;;
2618;SDS011;1319;52.346;13.096;2023-09-07T10:32:57;7.75;;;4.72;;
2618;SDS011;1319;52.346;13.096;2023-09-07T10:35:23;8.52;;;4.85;;
2618;SDS011;1319;52.346;13.096;2023-09-07T10:37:50;5.68;;;4.65;;
2618;SDS011;1319;52.346;13.096;2023-09-07T10:40:21;8.07;;;4.72;;
2618;SDS011;1319;52.346;13.096;2023-09-07T10:42:47;9.73;;;4.82;;
2618;SDS011;1319;52.346;13.096;2023-09-07T10:45:13;6.50;;;4.80;;
2618;SDS011;1319;52.346;13.096;2023-09-07T10:47:44;6.97;;;4.72;;
2618;SDS011;1319;52.346;13.096;2023-09-07T10:50:11;10.95;;;4.85;;
2618;SDS011;1319;52.346;13.096;2023-09-07T10:52:37;5.18;;;4.57;;
2618;SDS011;1319;52.346;13.096;2023-09-07T10:55:03;6.13;;;4.82;;
2618;SDS011;1319;52.346;13.096;2023-09-07T10:57:28;5.95;;;5.03;;
2618;SDS011;1319;52.346;13.096;2023-09-07T10:59:54;10.32;;;4.22;;
2618;SDS011;1319;52.346;13.096;2023-09-07T11:02:20;5.47;;;4.15;;
2618;SDS011;1319;52.346;13.096;2023-09-07T11:04:45;7.55;;;4.40;;
2618;SDS011;1319;52.346;13.096;2023-09-07T11:07:10;4.78;;;4.25;;
2618;SDS011;1319;52.346;13.096;2023-09-07T11:09:40;5.72;;;4.15;;
2618;SDS011;1319;52.346;13.096;2023-09-07T11:12:05;5.97;;;3.92;;
2618;SDS011;1319;52.346;13.096;2023-09-07T11:14:30;7.32;;;3.97;;
2618;SDS011;1319;52.346;13.096;2023-09-07T11:16:56;6.15;;;3.90;;
2618;SDS011;1319;52.346;13.096;2023-09-07T11:19:21;4.05;;;3.72;;
2618;SDS011;1319;52.346;13.096;2023-09-07T11:21:46;12.77;;;3.45;;
2618;SDS011;1319;52.346;13.096;2023-09-07T11:24:12;4.38;;;3.97;;
2618;SDS011;1319;52.346;13.096;2023-09-07T11:26:43;5.35;;;3.80;;
2618;SDS011;1319;52.346;13.096;2023-09-07T11:29:09;7.53;;;3.95;;
2618;SDS011;1319;52.346;13.096;2023-09-07T11:31:34;5.43;;;4.07;;
2618;SDS011;1319;52.346;13.096;2023-09-07T11:33:59;5.43;;;4.05;;
2618;SDS011;1319;52.346;13.096;2023-09-07T11:36:25;4.45;;;4.05;;
2618;SDS011;1319;52.346;13.096;2023-09-07T11:38:50;5.40;;;3.70;;
2618;SDS011;1319;52.346;13.096;2023-09-07T11:41:15;5.30;;;4.03;;
2618;SDS011;1319;52.346;13.096;2023-09-07T11:43:41;7.15;;;4.25;;
2618;SDS011;1319;52.346;13.096;2023-09-07T11:46:07;4.55;;;4.15;;
2618;SDS011;1319;52.346;13.096;2023-09-07T11:48:32;4.60;;;4.20;;
2618;SDS011;1319;52.346;13.096;2023-09-07T11:50:58;6.28;;;4.00;;
2618;SDS011;1319;52.346;13.096;2023-09-07T11:53:24;4.43;;;3.80;;
2618;SDS011;1319;52.346;13.096;2023-09-07T11:55:49;6.32;;;3.97;;
2618;SDS011;1319;52.346;13.096;2023-09-07T11:58:14;7.32;;;4.43;;
2618;SDS011;1319;52.346;13.096;2023-09-07T12:00:39;4.32;;;3.90;;
2618;SDS011;1319;52.346;13.096;2023-09-07T12:03:06;5.50;;;3.90;;
2618;SDS011;1319;52.346;13.096;2023-09-07T12:05:32;4.35;;;3.95;;
2618;SDS011;1319;52.346;13.096;2023-09-07T12:07:57;5.03;;;3.83;;
2618;SDS011;1319;52.346;13.096;2023-09-07T12:10:22;8.10;;;3.92;;
2618;SDS011;1319;52.346;13.096;2023-09-07T12:12:47;4.93;;;3.97;;
2618;SDS011;1319;52.346;13.096;2023-09-07T12:15:13;4.30;;;3.67;;
2618;SDS011;1319;52.346;13.096;2023-09-07T12:17:38;6.45;;;3.83;;
2618;SDS011;1319;52.346;13.096;2023-09-07T12:20:04;3.60;;;3.30;;
2618;SDS011;1319;52.346;13.096;2023-09-07T12:22:35;6.55;;;4.10;;
2618;SDS011;1319;52.346;13.096;2023-09-07T12:25:02;5.68;;;3.30;;
2618;SDS011;1319;52.346;13.096;2023-09-07T12:27:28;5.00;;;3.85;;
2618;SDS011;1319;52.346;13.096;2023-09-07T12:29:53;7.30;;;3.72;;
2618;SDS011;1319;52.346;13.096;2023-09-07T12:32:18;6.38;;;3.25;;
2618;SDS011;1319;52.346;13.096;2023-09-07T12:34:43;3.75;;;3.45;;
2618;SDS011;1319;52.346;13.096;2023-09-07T12:37:09;4.60;;;3.80;;
2618;SDS011;1319;52.346;13.096;2023-09-07T12:39:34;3.63;;;3.33;;
2618;SDS011;1319;52.346;13.096;2023-09-07T12:42:00;4.32;;;3.30;;
2618;SDS011;1319;52.346;13.096;2023-09-07T12:44:26;3.83;;;3.38;;
2618;SDS011;1319;52.346;13.096;2023-09-07T12:46:51;3.70;;;3.28;;
2618;SDS011;1319;52.346;13.096;2023-09-07T12:49:16;5.15;;;3.60;;
2618;SDS011;1319;52.346;13.096;2023-09-07T12:51:42;3.90;;;3.50;;
2618;SDS011;1319;52.346;13.096;2023-09-07T12:54:07;5.15;;;3.60;;
2618;SDS011;1319;52.346;13.096;2023-09-07T12:56:33;3.70;;;3.40;;
2618;SDS011;1319;52.346;13.096;2023-09-07T12:58:58;6.47;;;3.58;;
2618;SDS011;1319;52.346;13.096;2023-09-07T13:01:25;5.20;;;3.90;;
2618;SDS011;1319;52.346;13.096;2023-09-07T13:03:50;4.20;;;3.53;;
2618;SDS011;1319;52.346;13.096;2023-09-07T13:06:15;4.20;;;3.80;;
2618;SDS011;1319;52.346;13.096;2023-09-07T13:08:42;4.18;;;3.78;;
2618;SDS011;1319;52.346;13.096;2023-09-07T13:11:07;3.83;;;3.40;;
2618;SDS011;1319;52.346;13.096;2023-09-07T13:13:33;5.90;;;3.72;;
2618;SDS011;1319;52.346;13.096;2023-09-07T13:15:58;4.35;;;3.90;;
2618;SDS011;1319;52.346;13.096;2023-09-07T13:18:23;7.65;;;3.70;;
2618;SDS011;1319;52.346;13.096;2023-09-07T13:20:50;4.65;;;3.53;;
2618;SDS011;1319;52.346;13.096;2023-09-07T13:23:16;4.68;;;3.80;;
2618;SDS011;1319;52.346;13.096;2023-09-07T13:25:42;4.35;;;3.60;;
2618;SDS011;1319;52.346;13.096;2023-09-07T13:28:08;6.13;;;3.70;;
2618;SDS011;1319;52.346;13.096;2023-09-07T13:30:33;6.93;;;3.40;;
2618;SDS011;1319;52.346;13.096;2023-09-07T13:32:58;3.65;;;3.35;;
2618;SDS011;1319;52.346;13.096;2023-09-07T13:35:24;6.68;;;3.75;;
2618;SDS011;1319;52.346;13.096;2023-09-07T13:37:50;6.47;;;3.70;;
2618;SDS011;1319;52.346;13.096;2023-09-07T13:40:15;4.65;;;3.70;;
2618;SDS011;1319;52.346;13.096;2023-09-07T13:42:41;5.70;;;3.95;;
2618;SDS011;1319;52.346;13.096;2023-09-07T13:45:07;8.75;;;3.97;;
2618;SDS011;1319;52.346;13.096;2023-09-07T13:47:33;5.97;;;3.70;;
2618;SDS011;1319;52.346;13.096;2023-09-07T13:49:58;6.22;;;3.92;;
2618;SDS011;1319;52.346;13.096;2023-09-07T13:52:23;4.65;;;3.92;;
2618;SDS011;1319;52.346;13.096;2023-09-07T13:54:49;4.47;;;4.05;;
2618;SDS011;1319;52.346;13.096;2023-09-07T13:57:14;4.22;;;3.75;;
2618;SDS011;1319;52.346;13.096;2023-09-07T13:59:39;5.90;;;3.78;;
2618;SDS011;1319;52.346;13.096;2023-09-07T14:02:05;3.90;;;3.60;;
2618;SDS011;1319;52.346;13.096;2023-09-07T14:04:30;6.95;;;3.72;;
2618;SDS011;1319;52.346;13.096;2023-09-07T14:06:56;5.30;;;3.70;;
2618;SDS011;1319;52.346;13.096;2023-09-07T14:09:21;4.07;;;3.53;;
2618;SDS011;1319;52.346;13.096;2023-09-07T14:11:48;6.43;;;3.85;;
2618;SDS011;1319;52.346;13.096;2023-09-07T14:14:13;7.28;;;3.67;;
2618;SDS011;1319;52.346;13.096;2023-09-07T14:16:39;5.82;;;4.00;;
2618;SDS011;1319;52.346;13.096;2023-09-07T14:19:04;5.97;;;4.55;;
2618;SDS011;1319;52.346;13.096;2023-09-07T14:21:30;5.90;;;3.80;;
2618;SDS011;1319;52.346;13.096;2023-09-07T14:23:55;5.53;;;3.88;;
2618;SDS011;1319;52.346;13.096;2023-09-07T14:26:20;7.03;;;4.00;;
2618;SDS011;1319;52.346;13.096;2023-09-07T14:28:45;5.15;;;3.80;;
2618;SDS011;1319;52.346;13.096;2023-09-07T14:31:11;6.28;;;3.60;;
2618;SDS011;1319;52.346;13.096;2023-09-07T14:33:37;7.28;;;4.05;;
2618;SDS011;1319;52.346;13.096;2023-09-07T14:36:04;4.90;;;3.67;;
2618;SDS011;1319;52.346;13.096;2023-09-07T14:38:29;7.65;;;3.50;;
2618;SDS011;1319;52.346;13.096;2023-09-07T14:40:54;5.50;;;3.95;;